sensor_id;sensor_type;location;lat;lon;timestamp;temperature;humidity
54884;DHT22;40776;52.880;6.016;2023-07-29T07:21:22;20.40;99.90
54884;DHT22;40776;52.880;6.016;2023-07-29T07:23:49;20.20;99.90
54884;DHT22;40776;52.880;6.016;2023-07-29T07:40:56;19.80;99.90
54884;DHT22;40776;52.880;6.016;2023-07-29T07:43:22;19.90;99.90
54884;DHT22;40776;52.880;6.016;2023-07-29T07:50:42;20.60;99.90
54884;DHT22;40776;52.880;6.016;2023-07-29T08:05:21;21.10;99.90
54884;DHT22;40776;52.880;6.016;2023-07-29T08:07:46;20.80;99.90
54884;DHT22;40776;52.880;6.016;2023-07-29T08:15:05;20.90;99.90
54884;DHT22;40776;52.880;6.016;2023-07-29T08:24:49;22.30;99.90
54884;DHT22;40776;52.880;6.016;2023-07-29T08:27:15;22.30;99.90
54884;DHT22;40776;52.880;6.016;2023-07-29T08:29:41;22.30;99.90
54884;DHT22;40776;52.880;6.016;2023-07-29T08:32:07;22.40;99.90
54884;DHT22;40776;52.880;6.016;2023-07-29T08:39:25;22.50;99.90
54884;DHT22;40776;52.880;6.016;2023-07-29T08:42:03;22.50;99.90
54884;DHT22;40776;52.880;6.016;2023-07-29T08:44:39;22.30;99.90
54884;DHT22;40776;52.880;6.016;2023-07-29T08:47:06;22.20;99.90
54884;DHT22;40776;52.880;6.016;2023-07-29T08:49:32;22.20;99.90
54884;DHT22;40776;52.880;6.016;2023-07-29T08:54:25;22.30;99.90
54884;DHT22;40776;52.880;6.016;2023-07-29T08:56:51;22.40;99.90
54884;DHT22;40776;52.880;6.016;2023-07-29T08:59:19;22.10;99.90
54884;DHT22;40776;52.880;6.016;2023-07-29T09:06:37;22.70;99.90
54884;DHT22;40776;52.880;6.016;2023-07-29T09:13:57;22.50;99.90
54884;DHT22;40776;52.880;6.016;2023-07-29T09:16:23;22.60;99.90
54884;DHT22;40776;52.880;6.016;2023-07-29T09:18:50;22.60;99.90
54884;DHT22;40776;52.880;6.016;2023-07-29T09:21:18;22.30;99.90
54884;DHT22;40776;52.880;6.016;2023-07-29T09:23:48;22.70;99.90
54884;DHT22;40776;52.880;6.016;2023-07-29T09:26:25;22.70;99.90
54884;DHT22;40776;52.880;6.016;2023-07-29T09:28:53;23.00;99.90
54884;DHT22;40776;52.880;6.016;2023-07-29T09:31:24;22.70;99.90
54884;DHT22;40776;52.880;6.016;2023-07-29T09:33:56;23.30;99.90
54884;DHT22;40776;52.880;6.016;2023-07-29T09:36:23;23.40;99.90
54884;DHT22;40776;52.880;6.016;2023-07-29T09:38:52;23.50;99.90
54884;DHT22;40776;52.880;6.016;2023-07-29T09:41:19;23.60;99.90
54884;DHT22;40776;52.880;6.016;2023-07-29T09:48:37;22.90;99.90
54884;DHT22;40776;52.880;6.016;2023-07-29T09:51:10;22.20;99.90
54884;DHT22;40776;52.880;6.016;2023-07-29T09:53:45;22.50;99.90
54884;DHT22;40776;52.880;6.016;2023-07-29T09:56:12;22.10;99.90
54884;DHT22;40776;52.880;6.016;2023-07-29T09:58:38;22.00;99.90
54884;DHT22;40776;52.880;6.016;2023-07-29T10:06:02;21.10;99.90
54884;DHT22;40776;52.880;6.016;2023-07-29T10:10:59;20.80;99.90
54884;DHT22;40776;52.880;6.016;2023-07-29T10:13:26;21.10;99.90
54884;DHT22;40776;52.880;6.016;2023-07-29T10:15:54;21.10;99.90
54884;DHT22;40776;52.880;6.016;2023-07-29T10:18:22;21.40;99.90
54884;DHT22;40776;52.880;6.016;2023-07-29T10:20:50;21.70;99.90
54884;DHT22;40776;52.880;6.016;2023-07-29T10:23:18;21.90;99.90
54884;DHT22;40776;52.880;6.016;2023-07-29T10:25:49;21.80;99.90
54884;DHT22;40776;52.880;6.016;2023-07-29T10:28:17;21.70;99.90
54884;DHT22;40776;52.880;6.016;2023-07-29T10:46:19;22.30;99.90
54884;DHT22;40776;52.880;6.016;2023-07-29T10:48:53;22.30;99.90
54884;DHT22;40776;52.880;6.016;2023-07-29T10:51:29;22.50;99.90
54884;DHT22;40776;52.880;6.016;2023-07-29T10:56:29;22.90;99.90
54884;DHT22;40776;52.880;6.016;2023-07-29T10:58:56;23.00;99.90
54884;DHT22;40776;52.880;6.016;2023-07-29T11:01:32;23.10;99.90
54884;DHT22;40776;52.880;6.016;2023-07-29T11:15:26;22.50;99.90
54884;DHT22;40776;52.880;6.016;2023-07-29T11:18:00;22.20;99.90
54884;DHT22;40776;52.880;6.016;2023-07-29T11:20:33;22.40;99.90
54884;DHT22;40776;52.880;6.016;2023-07-29T11:23:03;22.20;99.90
54884;DHT22;40776;52.880;6.016;2023-07-29T11:25:30;22.50;99.90
54884;DHT22;40776;52.880;6.016;2023-07-29T11:27:58;22.40;99.90
54884;DHT22;40776;52.880;6.016;2023-07-29T11:30:24;22.10;99.90
54884;DHT22;40776;52.880;6.016;2023-07-29T11:37:49;22.30;99.90
54884;DHT22;40776;52.880;6.016;2023-07-29T11:40:16;22.40;99.90
54884;DHT22;40776;52.880;6.016;2023-07-29T11:47:35;22.40;99.90
54884;DHT22;40776;52.880;6.016;2023-07-29T11:50:03;22.50;99.90
54884;DHT22;40776;52.880;6.016;2023-07-29T11:52:32;22.90;99.90
54884;DHT22;40776;52.880;6.016;2023-07-29T12:02:17;22.80;99.90
54884;DHT22;40776;52.880;6.016;2023-07-29T12:04:46;22.70;99.90
54884;DHT22;40776;52.880;6.016;2023-07-29T12:07:13;22.70;99.90
54884;DHT22;40776;52.880;6.016;2023-07-29T12:12:07;22.60;99.90
54884;DHT22;40776;52.880;6.016;2023-07-29T12:14:33;22.80;99.90
54884;DHT22;40776;52.880;6.016;2023-07-29T12:17:04;23.00;99.90
54884;DHT22;40776;52.880;6.016;2023-07-29T12:19:35;23.30;99.90
54884;DHT22;40776;52.880;6.016;2023-07-29T12:22:02;23.00;99.90
54884;DHT22;40776;52.880;6.016;2023-07-29T12:24:30;23.00;99.90
54884;DHT22;40776;52.880;6.016;2023-07-29T12:34:19;23.20;99.90
54884;DHT22;40776;52.880;6.016;2023-07-29T12:36:50;23.20;99.90
54884;DHT22;40776;52.880;6.016;2023-07-29T12:39:23;23.40;99.90
54884;DHT22;40776;52.880;6.016;2023-07-29T12:41:51;23.30;99.90
54884;DHT22;40776;52.880;6.016;2023-07-29T12:54:03;23.70;99.90
54884;DHT22;40776;52.880;6.016;2023-07-29T12:56:30;23.80;99.90
54884;DHT22;40776;52.880;6.016;2023-07-29T12:58:57;23.80;99.90
54884;DHT22;40776;52.880;6.016;2023-07-29T13:08:43;23.70;99.90
54884;DHT22;40776;52.880;6.016;2023-07-29T13:20:54;23.40;99.90
54884;DHT22;40776;52.880;6.016;2023-07-29T13:30:39;24.10;99.90
54884;DHT22;40776;52.880;6.016;2023-07-29T13:33:06;23.90;99.90
54884;DHT22;40776;52.880;6.016;2023-07-29T13:42:53;24.30;99.90
54884;DHT22;40776;52.880;6.016;2023-07-29T13:52:38;24.90;99.90
54884;DHT22;40776;52.880;6.016;2023-07-29T13:55:05;24.30;99.90
54884;DHT22;40776;52.880;6.016;2023-07-29T14:04:52;23.70;99.90
54884;DHT22;40776;52.880;6.016;2023-07-29T14:14:44;23.90;99.90
54884;DHT22;40776;52.880;6.016;2023-07-29T14:19:37;24.40;99.90
54884;DHT22;40776;52.880;6.016;2023-07-29T14:22:03;24.70;99.90
54884;DHT22;40776;52.880;6.016;2023-07-29T14:53:42;25.50;99.90
54884;DHT22;40776;52.880;6.016;2023-07-29T14:58:36;25.90;99.90
54884;DHT22;40776;52.880;6.016;2023-07-29T15:01:01;26.60;99.90
54884;DHT22;40776;52.880;6.016;2023-07-29T15:05:53;26.20;99.90
54884;DHT22;40776;52.880;6.016;2023-07-29T15:08:19;26.50;99.90
54884;DHT22;40776;52.880;6.016;2023-07-29T15:10:46;26.30;99.90
54884;DHT22;40776;52.880;6.016;2023-07-29T15:13:12;26.30;99.90
54884;DHT22;40776;52.880;6.016;2023-07-29T15:15:41;26.50;99.90
54884;DHT22;40776;52.880;6.016;2023-07-29T15:18:07;26.80;99.90
54884;DHT22;40776;52.880;6.016;2023-07-29T15:20:32;26.80;99.90
54884;DHT22;40776;52.880;6.016;2023-07-29T15:22:58;27.40;99.90
54884;DHT22;40776;52.880;6.016;2023-07-29T15:25:24;26.80;99.90
54884;DHT22;40776;52.880;6.016;2023-07-29T15:27:50;25.20;99.90
54884;DHT22;40776;52.880;6.016;2023-07-29T15:32:41;25.50;99.90
54884;DHT22;40776;52.880;6.016;2023-07-29T15:35:10;25.60;99.90
54884;DHT22;40776;52.880;6.016;2023-07-29T15:37:36;25.70;99.90
54884;DHT22;40776;52.880;6.016;2023-07-29T15:40:02;26.40;99.90
54884;DHT22;40776;52.880;6.016;2023-07-29T15:42:29;26.60;99.90
54884;DHT22;40776;52.880;6.016;2023-07-29T15:44:55;27.40;99.90
54884;DHT22;40776;52.880;6.016;2023-07-29T15:47:21;27.30;99.90
54884;DHT22;40776;52.880;6.016;2023-07-29T15:49:46;28.00;99.90
54884;DHT22;40776;52.880;6.016;2023-07-29T15:52:12;27.50;99.90
54884;DHT22;40776;52.880;6.016;2023-07-29T15:54:43;27.60;99.90
54884;DHT22;40776;52.880;6.016;2023-07-29T15:57:09;27.80;99.90
54884;DHT22;40776;52.880;6.016;2023-07-29T15:59:35;27.80;99.90
54884;DHT22;40776;52.880;6.016;2023-07-29T16:02:01;27.80;99.90
54884;DHT22;40776;52.880;6.016;2023-07-29T16:04:27;27.40;99.90
54884;DHT22;40776;52.880;6.016;2023-07-29T16:06:53;26.80;99.90
54884;DHT22;40776;52.880;6.016;2023-07-29T16:09:20;27.20;99.90
54884;DHT22;40776;52.880;6.016;2023-07-29T16:11:47;27.50;99.90
54884;DHT22;40776;52.880;6.016;2023-07-29T16:14:13;27.80;99.90
54884;DHT22;40776;52.880;6.016;2023-07-29T16:16:40;28.30;99.90
54884;DHT22;40776;52.880;6.016;2023-07-29T16:19:05;28.50;99.90
54884;DHT22;40776;52.880;6.016;2023-07-29T16:21:32;28.40;99.90
54884;DHT22;40776;52.880;6.016;2023-07-29T16:23:57;28.40;99.90
54884;DHT22;40776;52.880;6.016;2023-07-29T16:26:23;28.30;99.90
54884;DHT22;40776;52.880;6.016;2023-07-29T16:28:49;28.10;99.90
54884;DHT22;40776;52.880;6.016;2023-07-29T16:31:15;26.80;99.90
54884;DHT22;40776;52.880;6.016;2023-07-29T16:33:41;26.20;99.90
54884;DHT22;40776;52.880;6.016;2023-07-29T16:36:06;26.30;99.90
54884;DHT22;40776;52.880;6.016;2023-07-29T16:38:32;26.90;99.90
54884;DHT22;40776;52.880;6.016;2023-07-29T16:40:58;27.40;99.90
54884;DHT22;40776;52.880;6.016;2023-07-29T16:43:24;27.60;99.90
54884;DHT22;40776;52.880;6.016;2023-07-29T16:45:49;28.10;99.90
54884;DHT22;40776;52.880;6.016;2023-07-29T16:48:15;28.30;99.90
54884;DHT22;40776;52.880;6.016;2023-07-29T16:50:41;28.30;99.90
54884;DHT22;40776;52.880;6.016;2023-07-29T16:53:07;27.20;99.90
54884;DHT22;40776;52.880;6.016;2023-07-29T16:55:32;26.90;99.90
54884;DHT22;40776;52.880;6.016;2023-07-29T16:57:58;27.50;99.90
54884;DHT22;40776;52.880;6.016;2023-07-29T17:00:24;27.20;99.90
54884;DHT22;40776;52.880;6.016;2023-07-29T17:02:52;26.80;99.90
54884;DHT22;40776;52.880;6.016;2023-07-29T17:05:18;27.10;99.90
54884;DHT22;40776;52.880;6.016;2023-07-29T17:10:09;26.50;99.90
54884;DHT22;40776;52.880;6.016;2023-07-29T17:12:35;26.80;99.90
54884;DHT22;40776;52.880;6.016;2023-07-29T17:15:01;26.90;99.90
54884;DHT22;40776;52.880;6.016;2023-07-29T17:17:30;26.80;99.90
54884;DHT22;40776;52.880;6.016;2023-07-29T17:19:56;27.00;99.90
54884;DHT22;40776;52.880;6.016;2023-07-29T17:22:21;26.80;99.90
54884;DHT22;40776;52.880;6.016;2023-07-29T17:24:47;26.70;99.90
54884;DHT22;40776;52.880;6.016;2023-07-29T17:27:13;27.00;99.90
54884;DHT22;40776;52.880;6.016;2023-07-29T17:29:39;27.10;99.90
54884;DHT22;40776;52.880;6.016;2023-07-29T17:32:06;27.20;99.90
54884;DHT22;40776;52.880;6.016;2023-07-29T17:34:31;27.40;99.90
54884;DHT22;40776;52.880;6.016;2023-07-29T17:36:57;27.00;99.90
54884;DHT22;40776;52.880;6.016;2023-07-29T17:39:23;27.00;99.90
54884;DHT22;40776;52.880;6.016;2023-07-29T17:41:49;26.30;99.90
54884;DHT22;40776;52.880;6.016;2023-07-29T17:44:14;26.60;99.90
54884;DHT22;40776;52.880;6.016;2023-07-29T17:46:40;26.40;99.90
54884;DHT22;40776;52.880;6.016;2023-07-29T17:49:07;26.20;99.90
54884;DHT22;40776;52.880;6.016;2023-07-29T17:51:33;26.00;99.90
54884;DHT22;40776;52.880;6.016;2023-07-29T17:53:58;26.30;99.90
54884;DHT22;40776;52.880;6.016;2023-07-29T17:56:24;25.90;99.90
54884;DHT22;40776;52.880;6.016;2023-07-29T17:58:51;26.30;99.90
54884;DHT22;40776;52.880;6.016;2023-07-29T18:01:17;25.20;99.90
54884;DHT22;40776;52.880;6.016;2023-07-29T18:06:15;23.80;99.90
54884;DHT22;40776;52.880;6.016;2023-07-29T18:08:41;23.40;99.90
54884;DHT22;40776;52.880;6.016;2023-07-29T18:30:41;21.40;99.90
54884;DHT22;40776;52.880;6.016;2023-07-29T18:55:08;21.00;99.90
54884;DHT22;40776;52.880;6.016;2023-07-29T19:04:52;20.60;99.90
